sensor_id;sensor_type;location;lat;lon;timestamp;pressure;altitude;pressure_sealevel;temperature;humidity
4410;BME280;2218;51.408;7.208;2022-10-20T00:02:24;100035.44;;;20.08;47.00
4410;BME280;2218;51.408;7.208;2022-10-20T00:04:50;100035.44;;;20.08;47.04
4410;BME280;2218;51.408;7.208;2022-10-20T00:07:17;100033.75;;;20.07;47.03
4410;BME280;2218;51.408;7.208;2022-10-20T00:09:45;100036.38;;;20.07;47.07
4410;BME280;2218;51.408;7.208;2022-10-20T00:12:12;100034.69;;;20.06;47.09
4410;BME280;2218;51.408;7.208;2022-10-20T00:14:39;100033.75;;;20.07;47.07
4410;BME280;2218;51.408;7.208;2022-10-20T00:17:06;100032.91;;;20.06;46.96
4410;BME280;2218;51.408;7.208;2022-10-20T00:19:33;100026.78;;;20.06;46.97
4410;BME280;2218;51.408;7.208;2022-10-20T00:22:00;100025.09;;;20.05;47.02
4410;BME280;2218;51.408;7.208;2022-10-20T00:24:27;100025.09;;;20.05;47.14
4410;BME280;2218;51.408;7.208;2022-10-20T00:26:55;100018.09;;;20.04;47.02
4410;BME280;2218;51.408;7.208;2022-10-20T00:29:22;100012.81;;;20.04;46.90
4410;BME280;2218;51.408;7.208;2022-10-20T00:31:49;100006.81;;;20.02;46.89
4410;BME280;2218;51.408;7.208;2022-10-20T00:34:16;100007.56;;;20.04;47.08
4410;BME280;2218;51.408;7.208;2022-10-20T00:36:43;99996.28;;;20.02;46.97
4410;BME280;2218;51.408;7.208;2022-10-20T00:39:10;99983.19;;;20.00;46.90
4410;BME280;2218;51.408;7.208;2022-10-20T00:41:38;99981.41;;;20.01;47.07
4410;BME280;2218;51.408;7.208;2022-10-20T00:44:53;99971.81;;;20.00;46.92
4410;BME280;2218;51.408;7.208;2022-10-20T00:47:35;99974.44;;;20.00;47.04
4410;BME280;2218;51.408;7.208;2022-10-20T00:50:08;99973.69;;;19.98;46.95
4410;BME280;2218;51.408;7.208;2022-10-20T00:52:37;99956.91;;;19.99;46.94
4410;BME280;2218;51.408;7.208;2022-10-20T00:55:07;99960.50;;;19.98;46.96
4410;BME280;2218;51.408;7.208;2022-10-20T00:57:36;99957.13;;;19.96;46.98
4410;BME280;2218;51.408;7.208;2022-10-20T01:00:06;99945.63;;;19.97;46.91
4410;BME280;2218;51.408;7.208;2022-10-20T01:02:33;99937.72;;;19.97;46.98
4410;BME280;2218;51.408;7.208;2022-10-20T01:05:01;99928.13;;;19.96;46.88
4410;BME280;2218;51.408;7.208;2022-10-20T01:07:29;99941.31;;;19.96;46.96
4410;BME280;2218;51.408;7.208;2022-10-20T01:09:56;99941.31;;;19.96;46.93
4410;BME280;2218;51.408;7.208;2022-10-20T01:12:30;99936.03;;;19.96;47.05
4410;BME280;2218;51.408;7.208;2022-10-20T01:15:14;99928.22;;;19.94;46.85
4410;BME280;2218;51.408;7.208;2022-10-20T01:17:58;99929.06;;;19.95;46.88
4410;BME280;2218;51.408;7.208;2022-10-20T01:21:16;99939.63;;;19.95;46.90
4410;BME280;2218;51.408;7.208;2022-10-20T01:24:29;99934.94;;;19.98;46.78
4410;BME280;2218;51.408;7.208;2022-10-20T01:27:37;99926.84;;;20.01;46.86
4410;BME280;2218;51.408;7.208;2022-10-20T01:30:10;99926.53;;;20.06;46.94
4410;BME280;2218;51.408;7.208;2022-10-20T01:33:04;99917.66;;;20.07;46.80
4410;BME280;2218;51.408;7.208;2022-10-20T01:35:45;99913.03;;;20.10;46.38
4410;BME280;2218;51.408;7.208;2022-10-20T01:38:26;99899.72;;;20.12;46.71
4410;BME280;2218;51.408;7.208;2022-10-20T01:41:02;99887.28;;;20.14;46.62
4410;BME280;2218;51.408;7.208;2022-10-20T01:43:36;99889.66;;;20.17;46.60
4410;BME280;2218;51.408;7.208;2022-10-20T01:46:06;99886.19;;;20.17;46.67
4410;BME280;2218;51.408;7.208;2022-10-20T01:48:37;99884.41;;;20.17;46.54
4410;BME280;2218;51.408;7.208;2022-10-20T01:51:06;99885.16;;;20.19;46.32
4410;BME280;2218;51.408;7.208;2022-10-20T01:53:34;99878.16;;;20.18;46.66
4410;BME280;2218;51.408;7.208;2022-10-20T01:56:03;99882.41;;;20.21;46.59
4410;BME280;2218;51.408;7.208;2022-10-20T02:01:57;99871.00;;;20.20;46.79
4410;BME280;2218;51.408;7.208;2022-10-20T02:04:36;99856.00;;;20.21;46.66
4410;BME280;2218;51.408;7.208;2022-10-20T02:07:16;99854.22;;;20.21;46.66
4410;BME280;2218;51.408;7.208;2022-10-20T02:09:50;99846.28;;;20.21;46.59
4410;BME280;2218;51.408;7.208;2022-10-20T02:12:23;99852.41;;;20.22;46.55
4410;BME280;2218;51.408;7.208;2022-10-20T02:14:54;99841.97;;;20.20;45.98
4410;BME280;2218;51.408;7.208;2022-10-20T02:17:21;99846.28;;;20.21;46.51
4410;BME280;2218;51.408;7.208;2022-10-20T02:19:51;99842.81;;;20.21;46.45
4410;BME280;2218;51.408;7.208;2022-10-20T02:22:20;99843.66;;;20.21;46.55
4410;BME280;2218;51.408;7.208;2022-10-20T02:24:49;99840.19;;;20.21;46.50
4410;BME280;2218;51.408;7.208;2022-10-20T02:27:21;99834.91;;;20.21;46.63
4410;BME280;2218;51.408;7.208;2022-10-20T02:29:56;99839.34;;;20.20;46.40
4410;BME280;2218;51.408;7.208;2022-10-20T02:32:26;99835.84;;;20.20;46.22
4410;BME280;2218;51.408;7.208;2022-10-20T02:34:53;99835.84;;;20.20;46.32
4410;BME280;2218;51.408;7.208;2022-10-20T02:37:20;99819.19;;;20.19;46.19
4410;BME280;2218;51.408;7.208;2022-10-20T02:39:47;99819.19;;;20.19;46.22
4410;BME280;2218;51.408;7.208;2022-10-20T02:42:14;99806.00;;;20.19;46.35
4410;BME280;2218;51.408;7.208;2022-10-20T02:44:42;99804.19;;;20.20;46.39
4410;BME280;2218;51.408;7.208;2022-10-20T02:47:10;99798.06;;;20.19;46.35
4410;BME280;2218;51.408;7.208;2022-10-20T02:49:37;99791.09;;;20.18;46.49
4410;BME280;2218;51.408;7.208;2022-10-20T02:52:04;99800.72;;;20.19;46.20
4410;BME280;2218;51.408;7.208;2022-10-20T02:54:31;99794.56;;;20.19;46.34
4410;BME280;2218;51.408;7.208;2022-10-20T02:56:58;99797.19;;;20.19;46.32
4410;BME280;2218;51.408;7.208;2022-10-20T02:59:25;99797.31;;;20.17;46.38
4410;BME280;2218;51.408;7.208;2022-10-20T03:01:52;99785.81;;;20.18;46.27
4410;BME280;2218;51.408;7.208;2022-10-20T03:04:20;99792.88;;;20.18;46.73
4410;BME280;2218;51.408;7.208;2022-10-20T03:06:47;99789.41;;;20.17;46.37
4410;BME280;2218;51.408;7.208;2022-10-20T03:09:14;99786.75;;;20.17;46.26
4410;BME280;2218;51.408;7.208;2022-10-20T03:11:41;99782.31;;;20.18;46.03
4410;BME280;2218;51.408;7.208;2022-10-20T03:14:09;99781.50;;;20.17;46.37
4410;BME280;2218;51.408;7.208;2022-10-20T03:16:36;99784.97;;;20.18;46.32
4410;BME280;2218;51.408;7.208;2022-10-20T03:19:04;99768.28;;;20.17;46.16
4410;BME280;2218;51.408;7.208;2022-10-20T03:21:32;99768.28;;;20.17;46.27
4410;BME280;2218;51.408;7.208;2022-10-20T03:23:59;99770.94;;;20.17;46.19
4410;BME280;2218;51.408;7.208;2022-10-20T03:26:26;99778.84;;;20.17;46.10
4410;BME280;2218;51.408;7.208;2022-10-20T03:28:53;99781.50;;;20.17;45.99
4410;BME280;2218;51.408;7.208;2022-10-20T03:31:20;99773.56;;;20.17;46.11
4410;BME280;2218;51.408;7.208;2022-10-20T03:33:47;99765.66;;;20.17;46.13
4410;BME280;2218;51.408;7.208;2022-10-20T03:36:14;99764.81;;;20.17;46.30
4410;BME280;2218;51.408;7.208;2022-10-20T03:38:42;99760.38;;;20.17;46.13
4410;BME280;2218;51.408;7.208;2022-10-20T03:41:09;99754.25;;;20.17;46.28
4410;BME280;2218;51.408;7.208;2022-10-20T03:43:37;99748.16;;;20.16;46.10
4410;BME280;2218;51.408;7.208;2022-10-20T03:46:07;99751.63;;;20.17;46.30
4410;BME280;2218;51.408;7.208;2022-10-20T03:48:35;99744.53;;;20.17;46.19
4410;BME280;2218;51.408;7.208;2022-10-20T03:51:03;99736.63;;;20.17;46.21
4410;BME280;2218;51.408;7.208;2022-10-20T03:53:30;99735.78;;;20.17;46.19
4410;BME280;2218;51.408;7.208;2022-10-20T03:56:04;99729.56;;;20.18;46.15
4410;BME280;2218;51.408;7.208;2022-10-20T03:58:31;99716.47;;;20.16;46.13
4410;BME280;2218;51.408;7.208;2022-10-20T04:00:58;99713.84;;;20.16;46.35
4410;BME280;2218;51.408;7.208;2022-10-20T04:03:25;99727.88;;;20.17;45.98
4410;BME280;2218;51.408;7.208;2022-10-20T04:05:51;99722.59;;;20.17;45.85
4410;BME280;2218;51.408;7.208;2022-10-20T04:08:18;99727.75;;;20.18;45.68
4410;BME280;2218;51.408;7.208;2022-10-20T04:10:45;99735.66;;;20.18;45.88
4410;BME280;2218;51.408;7.208;2022-10-20T04:13:13;99737.38;;;20.19;45.85
4410;BME280;2218;51.408;7.208;2022-10-20T04:15:40;99726.81;;;20.19;45.69
4410;BME280;2218;51.408;7.208;2022-10-20T04:18:07;99716.28;;;20.19;45.70
4410;BME280;2218;51.408;7.208;2022-10-20T04:20:34;99714.47;;;20.20;45.52
4410;BME280;2218;51.408;7.208;2022-10-20T04:23:01;99714.34;;;20.21;45.68
4410;BME280;2218;51.408;7.208;2022-10-20T04:25:28;99725.75;;;20.22;45.61
4410;BME280;2218;51.408;7.208;2022-10-20T04:27:55;99715.19;;;20.22;46.23
4410;BME280;2218;51.408;7.208;2022-10-20T04:30:23;99709.91;;;20.22;45.62
4410;BME280;2218;51.408;7.208;2022-10-20T04:32:50;99716.03;;;20.22;45.63
4410;BME280;2218;51.408;7.208;2022-10-20T04:35:17;99700.19;;;20.22;45.61
4410;BME280;2218;51.408;7.208;2022-10-20T04:37:44;99690.47;;;20.23;45.58
4410;BME280;2218;51.408;7.208;2022-10-20T04:40:11;99690.47;;;20.23;45.47
4410;BME280;2218;51.408;7.208;2022-10-20T04:42:38;99695.75;;;20.23;45.34
4410;BME280;2218;51.408;7.208;2022-10-20T04:45:06;99692.16;;;20.24;45.41
4410;BME280;2218;51.408;7.208;2022-10-20T04:47:34;99681.59;;;20.24;45.58
4410;BME280;2218;51.408;7.208;2022-10-20T04:50:02;99676.31;;;20.24;45.39
4410;BME280;2218;51.408;7.208;2022-10-20T04:52:31;99669.28;;;20.24;45.49
4410;BME280;2218;51.408;7.208;2022-10-20T04:54:58;99669.28;;;20.24;45.47
4410;BME280;2218;51.408;7.208;2022-10-20T04:57:26;99666.63;;;20.24;45.75
4410;BME280;2218;51.408;7.208;2022-10-20T04:59:53;99664.00;;;20.24;45.73
4410;BME280;2218;51.408;7.208;2022-10-20T05:02:20;99656.09;;;20.24;45.56
4410;BME280;2218;51.408;7.208;2022-10-20T05:04:48;99652.47;;;20.25;45.50
4410;BME280;2218;51.408;7.208;2022-10-20T05:07:15;99645.53;;;20.24;45.51
4410;BME280;2218;51.408;7.208;2022-10-20T05:09:42;99645.53;;;20.24;45.80
4410;BME280;2218;51.408;7.208;2022-10-20T05:12:09;99647.19;;;20.25;45.62
4410;BME280;2218;51.408;7.208;2022-10-20T05:14:35;99641.91;;;20.25;45.63
4410;BME280;2218;51.408;7.208;2022-10-20T05:17:02;99634.84;;;20.26;45.55
4410;BME280;2218;51.408;7.208;2022-10-20T05:19:29;99627.78;;;20.26;45.65
4410;BME280;2218;51.408;7.208;2022-10-20T05:21:57;99610.25;;;20.25;45.71
4410;BME280;2218;51.408;7.208;2022-10-20T05:24:24;99606.66;;;20.26;45.71
4410;BME280;2218;51.408;7.208;2022-10-20T05:26:53;99611.94;;;20.26;45.78
4410;BME280;2218;51.408;7.208;2022-10-20T05:29:19;99601.38;;;20.26;45.73
4410;BME280;2218;51.408;7.208;2022-10-20T05:31:46;99596.09;;;20.26;45.66
4410;BME280;2218;51.408;7.208;2022-10-20T05:34:13;99596.09;;;20.26;45.74
4410;BME280;2218;51.408;7.208;2022-10-20T05:36:40;99590.81;;;20.26;45.73
4410;BME280;2218;51.408;7.208;2022-10-20T05:39:09;99593.47;;;20.26;45.55
4410;BME280;2218;51.408;7.208;2022-10-20T05:41:37;99603.19;;;20.26;45.53
4410;BME280;2218;51.408;7.208;2022-10-20T05:44:06;99597.78;;;20.27;45.72
4410;BME280;2218;51.408;7.208;2022-10-20T05:46:36;99583.75;;;20.27;45.53
4410;BME280;2218;51.408;7.208;2022-10-20T05:49:09;99574.16;;;20.26;45.86
4410;BME280;2218;51.408;7.208;2022-10-20T05:51:37;99569.72;;;20.26;45.72
4410;BME280;2218;51.408;7.208;2022-10-20T05:54:03;99577.63;;;20.26;45.89
4410;BME280;2218;51.408;7.208;2022-10-20T05:56:32;99572.34;;;20.26;45.86
4410;BME280;2218;51.408;7.208;2022-10-20T05:58:59;99570.56;;;20.27;45.98
4410;BME280;2218;51.408;7.208;2022-10-20T06:01:28;99559.16;;;20.26;46.17
4410;BME280;2218;51.408;7.208;2022-10-20T06:04:06;99565.28;;;20.27;46.11
4410;BME280;2218;51.408;7.208;2022-10-20T06:06:35;99575.00;;;20.26;46.21
4410;BME280;2218;51.408;7.208;2022-10-20T06:09:05;99571.50;;;20.26;46.23
4410;BME280;2218;51.408;7.208;2022-10-20T06:11:34;99575.69;;;20.28;46.12
4410;BME280;2218;51.408;7.208;2022-10-20T06:14:02;99580.13;;;20.28;46.40
4410;BME280;2218;51.408;7.208;2022-10-20T06:16:29;99575.69;;;20.28;46.24
4410;BME280;2218;51.408;7.208;2022-10-20T06:18:57;99583.63;;;20.28;46.19
4410;BME280;2218;51.408;7.208;2022-10-20T06:21:27;99574.78;;;20.29;46.40
4410;BME280;2218;51.408;7.208;2022-10-20T06:23:56;99572.97;;;20.30;46.27
4410;BME280;2218;51.408;7.208;2022-10-20T06:26:26;99572.13;;;20.29;46.42
4410;BME280;2218;51.408;7.208;2022-10-20T06:28:59;99581.84;;;20.29;46.35
4410;BME280;2218;51.408;7.208;2022-10-20T06:31:29;99589.63;;;20.30;46.55
4410;BME280;2218;51.408;7.208;2022-10-20T06:33:57;99584.25;;;20.32;46.23
4410;BME280;2218;51.408;7.208;2022-10-20T06:36:26;99601.66;;;20.34;46.14
4410;BME280;2218;51.408;7.208;2022-10-20T06:38:54;99592.03;;;20.33;46.14
4410;BME280;2218;51.408;7.208;2022-10-20T06:41:23;99592.03;;;20.33;46.17
4410;BME280;2218;51.408;7.208;2022-10-20T06:43:51;99594.66;;;20.33;46.16
4410;BME280;2218;51.408;7.208;2022-10-20T06:46:25;99591.09;;;20.34;46.38
4410;BME280;2218;51.408;7.208;2022-10-20T06:48:52;99594.56;;;20.35;46.47
4410;BME280;2218;51.408;7.208;2022-10-20T06:51:20;99583.19;;;20.34;46.58
4410;BME280;2218;51.408;7.208;2022-10-20T06:53:49;99584.84;;;20.35;46.56
4410;BME280;2218;51.408;7.208;2022-10-20T06:56:19;99582.22;;;20.35;46.44
4410;BME280;2218;51.408;7.208;2022-10-20T06:58:49;99582.94;;;20.37;46.45
4410;BME280;2218;51.408;7.208;2022-10-20T07:01:20;99575.28;;;20.46;46.45
4410;BME280;2218;51.408;7.208;2022-10-20T07:03:51;99576.97;;;20.47;46.43
4410;BME280;2218;51.408;7.208;2022-10-20T07:06:22;99582.03;;;20.50;46.71
4410;BME280;2218;51.408;7.208;2022-10-20T07:08:52;99580.94;;;20.52;46.35
4410;BME280;2218;51.408;7.208;2022-10-20T07:11:22;99572.94;;;20.54;46.37
4410;BME280;2218;51.408;7.208;2022-10-20T07:13:50;99588.28;;;20.60;46.36
4410;BME280;2218;51.408;7.208;2022-10-20T07:16:21;99584.47;;;20.64;46.39
4410;BME280;2218;51.408;7.208;2022-10-20T07:18:50;99599.22;;;20.67;46.36
4410;BME280;2218;51.408;7.208;2022-10-20T07:21:19;99578.72;;;20.70;46.54
4410;BME280;2218;51.408;7.208;2022-10-20T07:23:48;99582.31;;;20.69;46.54
4410;BME280;2218;51.408;7.208;2022-10-20T07:26:18;99574.38;;;20.69;46.61
4410;BME280;2218;51.408;7.208;2022-10-20T07:28:49;99571.13;;;20.65;46.52
4410;BME280;2218;51.408;7.208;2022-10-20T07:31:19;99572.81;;;20.67;46.83
4410;BME280;2218;51.408;7.208;2022-10-20T07:33:48;99572.94;;;20.65;46.60
4410;BME280;2218;51.408;7.208;2022-10-20T07:36:18;99563.34;;;20.64;46.64
4410;BME280;2218;51.408;7.208;2022-10-20T07:38:47;99577.03;;;20.69;46.55
4410;BME280;2218;51.408;7.208;2022-10-20T07:41:14;99578.94;;;20.67;46.77
4410;BME280;2218;51.408;7.208;2022-10-20T07:43:42;99568.38;;;20.67;46.75
4410;BME280;2218;51.408;7.208;2022-10-20T07:46:11;99584.22;;;20.67;46.45
4410;BME280;2218;51.408;7.208;2022-10-20T07:48:38;99587.59;;;20.69;46.51
4410;BME280;2218;51.408;7.208;2022-10-20T07:51:25;99584.13;;;20.69;46.60
4410;BME280;2218;51.408;7.208;2022-10-20T07:53:56;99585.78;;;20.70;46.41
4410;BME280;2218;51.408;7.208;2022-10-20T07:56:26;99578.72;;;20.70;46.78
4410;BME280;2218;51.408;7.208;2022-10-20T07:58:53;99578.59;;;20.72;46.75
4410;BME280;2218;51.408;7.208;2022-10-20T08:01:20;99575.81;;;20.73;46.68
4410;BME280;2218;51.408;7.208;2022-10-20T08:03:47;99569.47;;;20.76;46.69
4410;BME280;2218;51.408;7.208;2022-10-20T08:06:15;99564.88;;;20.78;46.52
4410;BME280;2218;51.408;7.208;2022-10-20T08:08:42;99560.44;;;20.78;46.56
4410;BME280;2218;51.408;7.208;2022-10-20T08:11:10;99549.88;;;20.78;46.50
4410;BME280;2218;51.408;7.208;2022-10-20T08:13:37;99541.03;;;20.79;46.62
4410;BME280;2218;51.408;7.208;2022-10-20T08:16:06;99530.47;;;20.79;46.71
4410;BME280;2218;51.408;7.208;2022-10-20T08:18:33;99522.63;;;20.78;46.74
4410;BME280;2218;51.408;7.208;2022-10-20T08:21:09;99528.75;;;20.78;46.95
4410;BME280;2218;51.408;7.208;2022-10-20T08:23:40;99564.78;;;20.79;47.07
4410;BME280;2218;51.408;7.208;2022-10-20T08:26:09;99547.25;;;20.78;47.03
4410;BME280;2218;51.408;7.208;2022-10-20T08:28:36;99549.03;;;20.78;46.91
4410;BME280;2218;51.408;7.208;2022-10-20T08:31:05;99542.81;;;20.79;47.06
4410;BME280;2218;51.408;7.208;2022-10-20T08:33:33;99549.03;;;20.78;47.07
4410;BME280;2218;51.408;7.208;2022-10-20T08:36:02;99540.28;;;20.77;46.84
4410;BME280;2218;51.408;7.208;2022-10-20T08:38:29;99543.75;;;20.78;47.16
4410;BME280;2218;51.408;7.208;2022-10-20T08:40:58;99525.28;;;20.78;47.02
4410;BME280;2218;51.408;7.208;2022-10-20T08:43:27;99528.75;;;20.78;47.15
4410;BME280;2218;51.408;7.208;2022-10-20T08:45:55;99523.47;;;20.78;47.04
4410;BME280;2218;51.408;7.208;2022-10-20T08:48:25;99519.06;;;20.79;46.77
4410;BME280;2218;51.408;7.208;2022-10-20T08:50:54;99528.75;;;20.78;47.16
4410;BME280;2218;51.408;7.208;2022-10-20T08:53:24;99534.03;;;20.78;46.93
4410;BME280;2218;51.408;7.208;2022-10-20T08:55:53;99527.81;;;20.79;47.42
4410;BME280;2218;51.408;7.208;2022-10-20T08:58:23;99539.31;;;20.78;47.22
4410;BME280;2218;51.408;7.208;2022-10-20T09:00:57;99530.19;;;20.82;47.48
4410;BME280;2218;51.408;7.208;2022-10-20T09:03:28;99536.09;;;20.86;47.58
4410;BME280;2218;51.408;7.208;2022-10-20T09:06:05;99531.41;;;20.89;47.30
4410;BME280;2218;51.408;7.208;2022-10-20T09:08:35;99528.66;;;20.91;47.34
4410;BME280;2218;51.408;7.208;2022-10-20T09:11:07;99527.56;;;20.94;47.85
4410;BME280;2218;51.408;7.208;2022-10-20T09:13:37;99530.09;;;20.95;47.67
4410;BME280;2218;51.408;7.208;2022-10-20T09:16:12;99523.00;;;20.96;47.93
4410;BME280;2218;51.408;7.208;2022-10-20T09:18:39;99523.13;;;20.94;48.09
4410;BME280;2218;51.408;7.208;2022-10-20T09:21:13;99524.94;;;20.94;47.70
4410;BME280;2218;51.408;7.208;2022-10-20T09:23:45;99533.69;;;20.94;48.06
4410;BME280;2218;51.408;7.208;2022-10-20T09:26:16;99524.81;;;20.95;48.33
4410;BME280;2218;51.408;7.208;2022-10-20T09:28:48;99523.00;;;20.96;48.63
4410;BME280;2218;51.408;7.208;2022-10-20T09:31:30;99528.97;;;20.98;47.96
4410;BME280;2218;51.408;7.208;2022-10-20T09:33:58;99535.97;;;20.99;48.32
4410;BME280;2218;51.408;7.208;2022-10-20T09:36:29;99533.44;;;20.97;48.21
4410;BME280;2218;51.408;7.208;2022-10-20T09:38:57;99536.91;;;20.98;47.86
4410;BME280;2218;51.408;7.208;2022-10-20T09:41:28;99532.47;;;20.98;48.10
4410;BME280;2218;51.408;7.208;2022-10-20T09:44:01;99532.47;;;20.98;48.24
4410;BME280;2218;51.408;7.208;2022-10-20T09:46:37;99526.34;;;20.98;48.23
4410;BME280;2218;51.408;7.208;2022-10-20T09:49:24;99518.41;;;20.98;48.18
4410;BME280;2218;51.408;7.208;2022-10-20T09:51:54;99514.09;;;20.97;47.91
4410;BME280;2218;51.408;7.208;2022-10-20T09:54:24;99506.19;;;20.97;47.85
4410;BME280;2218;51.408;7.208;2022-10-20T09:56:52;99508.81;;;20.97;48.04
4410;BME280;2218;51.408;7.208;2022-10-20T09:59:25;99500.91;;;20.97;47.59
4410;BME280;2218;51.408;7.208;2022-10-20T10:01:58;99499.22;;;20.96;47.71
4410;BME280;2218;51.408;7.208;2022-10-20T10:04:32;99496.59;;;20.96;47.70
4410;BME280;2218;51.408;7.208;2022-10-20T10:07:00;99499.34;;;20.94;47.65
4410;BME280;2218;51.408;7.208;2022-10-20T10:09:30;99488.78;;;20.94;47.94
4410;BME280;2218;51.408;7.208;2022-10-20T10:12:02;99499.00;;;20.99;48.00
4410;BME280;2218;51.408;7.208;2022-10-20T10:14:32;99495.38;;;21.00;48.60
4410;BME280;2218;51.408;7.208;2022-10-20T10:17:01;99489.84;;;21.03;48.55
4410;BME280;2218;51.408;7.208;2022-10-20T10:19:31;99480.97;;;21.04;48.21
4410;BME280;2218;51.408;7.208;2022-10-20T10:22:01;99464.50;;;21.00;48.20
4410;BME280;2218;51.408;7.208;2022-10-20T10:24:41;99473.13;;;21.02;48.55
4410;BME280;2218;51.408;7.208;2022-10-20T10:27:24;99477.34;;;21.05;48.66
4410;BME280;2218;51.408;7.208;2022-10-20T10:29:54;99500.28;;;21.04;48.79
4410;BME280;2218;51.408;7.208;2022-10-20T10:32:26;99507.13;;;21.07;48.63
4410;BME280;2218;51.408;7.208;2022-10-20T10:35:18;99509.63;;;21.08;48.78
4410;BME280;2218;51.408;7.208;2022-10-20T10:37:48;99513.13;;;21.09;48.38
4410;BME280;2218;51.408;7.208;2022-10-20T10:40:18;99506.88;;;21.10;48.72
4410;BME280;2218;51.408;7.208;2022-10-20T10:43:20;99518.16;;;21.12;48.74
4410;BME280;2218;51.408;7.208;2022-10-20T10:46:02;99519.84;;;21.13;48.84
4410;BME280;2218;51.408;7.208;2022-10-20T10:48:58;99513.63;;;21.14;49.11
4410;BME280;2218;51.408;7.208;2022-10-20T10:51:45;99521.53;;;21.14;48.87
4410;BME280;2218;51.408;7.208;2022-10-20T10:54:32;99509.28;;;21.13;48.73
4410;BME280;2218;51.408;7.208;2022-10-20T10:57:12;99506.63;;;21.13;48.68
4410;BME280;2218;51.408;7.208;2022-10-20T10:59:42;99521.53;;;21.14;48.71
4410;BME280;2218;51.408;7.208;2022-10-20T11:02:33;99519.59;;;21.16;48.73
4410;BME280;2218;51.408;7.208;2022-10-20T11:05:23;99498.47;;;21.16;48.94
4410;BME280;2218;51.408;7.208;2022-10-20T11:08:07;99500.13;;;21.17;48.65
4410;BME280;2218;51.408;7.208;2022-10-20T11:10:48;99494.84;;;21.17;48.61
4410;BME280;2218;51.408;7.208;2022-10-20T11:13:28;99481.63;;;21.17;48.44
4410;BME280;2218;51.408;7.208;2022-10-20T11:16:19;99477.19;;;21.17;48.88
4410;BME280;2218;51.408;7.208;2022-10-20T11:19:19;99464.94;;;21.16;48.53
4410;BME280;2218;51.408;7.208;2022-10-20T11:22:00;99473.72;;;21.17;48.48
4410;BME280;2218;51.408;7.208;2022-10-20T11:24:48;99456.19;;;21.16;48.65
4410;BME280;2218;51.408;7.208;2022-10-20T11:27:25;99459.66;;;21.16;48.68
4410;BME280;2218;51.408;7.208;2022-10-20T11:29:56;99460.50;;;21.17;48.72
4410;BME280;2218;51.408;7.208;2022-10-20T11:32:36;99451.72;;;21.16;49.03
4410;BME280;2218;51.408;7.208;2022-10-20T11:35:18;99458.81;;;21.16;48.78
4410;BME280;2218;51.408;7.208;2022-10-20T11:37:55;99456.19;;;21.16;48.82
4410;BME280;2218;51.408;7.208;2022-10-20T11:40:34;99447.56;;;21.14;48.71
4410;BME280;2218;51.408;7.208;2022-10-20T11:43:12;99451.88;;;21.15;48.70
4410;BME280;2218;51.408;7.208;2022-10-20T11:45:50;99447.41;;;21.15;49.07
4410;BME280;2218;51.408;7.208;2022-10-20T11:48:25;99445.59;;;21.16;48.81
4410;BME280;2218;51.408;7.208;2022-10-20T11:51:26;99452.69;;;21.15;48.60
4410;BME280;2218;51.408;7.208;2022-10-20T11:54:29;99467.59;;;21.16;48.88
4410;BME280;2218;51.408;7.208;2022-10-20T11:57:19;99461.47;;;21.16;49.25
4410;BME280;2218;51.408;7.208;2022-10-20T12:00:19;99470.22;;;21.16;49.12
4410;BME280;2218;51.408;7.208;2022-10-20T12:03:32;99475.50;;;21.16;49.64
4410;BME280;2218;51.408;7.208;2022-10-20T12:06:30;99464.09;;;21.16;49.83
4410;BME280;2218;51.408;7.208;2022-10-20T12:09:23;99464.94;;;21.16;50.36
4410;BME280;2218;51.408;7.208;2022-10-20T12:11:57;99471.06;;;21.17;50.18
4410;BME280;2218;51.408;7.208;2022-10-20T12:14:32;99459.66;;;21.16;49.95
4410;BME280;2218;51.408;7.208;2022-10-20T12:17:25;99463.03;;;21.19;49.72
4410;BME280;2218;51.408;7.208;2022-10-20T12:23:57;99471.66;;;21.21;49.97
4410;BME280;2218;51.408;7.208;2022-10-20T12:27:15;99467.22;;;21.21;50.29
4410;BME280;2218;51.408;7.208;2022-10-20T12:33:15;99461.69;;;21.24;49.58
4410;BME280;2218;51.408;7.208;2022-10-20T12:36:13;99467.34;;;21.20;49.63
4410;BME280;2218;51.408;7.208;2022-10-20T12:38:51;99462.16;;;21.18;49.89
4410;BME280;2218;51.408;7.208;2022-10-20T12:41:28;99465.78;;;21.17;50.11
4410;BME280;2218;51.408;7.208;2022-10-20T12:44:00;99457.16;;;21.15;49.98
4410;BME280;2218;51.408;7.208;2022-10-20T12:46:32;99455.22;;;21.17;50.02
4410;BME280;2218;51.408;7.208;2022-10-20T12:49:05;99460.50;;;21.17;50.11
4410;BME280;2218;51.408;7.208;2022-10-20T12:51:37;99459.06;;;21.13;50.25
4410;BME280;2218;51.408;7.208;2022-10-20T12:54:19;99437.91;;;21.13;50.24
4410;BME280;2218;51.408;7.208;2022-10-20T12:56:49;99429.28;;;21.11;50.04
4410;BME280;2218;51.408;7.208;2022-10-20T12:59:38;99407.31;;;21.10;49.86
4410;BME280;2218;51.408;7.208;2022-10-20T13:02:48;99430.25;;;21.10;50.00
4410;BME280;2218;51.408;7.208;2022-10-20T13:05:45;99425.09;;;21.08;50.41
4410;BME280;2218;51.408;7.208;2022-10-20T13:08:23;99420.78;;;21.07;50.35
4410;BME280;2218;51.408;7.208;2022-10-20T13:10:50;99424.25;;;21.08;50.44
4410;BME280;2218;51.408;7.208;2022-10-20T13:13:47;99425.81;;;21.10;50.66
4410;BME280;2218;51.408;7.208;2022-10-20T13:16:21;99427.13;;;21.16;50.83
4410;BME280;2218;51.408;7.208;2022-10-20T13:18:51;99425.16;;;21.18;50.72
4410;BME280;2218;51.408;7.208;2022-10-20T13:21:28;99423.25;;;21.20;50.86
4410;BME280;2218;51.408;7.208;2022-10-20T13:24:02;99423.13;;;21.22;50.95
4410;BME280;2218;51.408;7.208;2022-10-20T13:26:36;99406.28;;;21.23;50.85
4410;BME280;2218;51.408;7.208;2022-10-20T13:29:16;99427.06;;;21.27;50.79
4410;BME280;2218;51.408;7.208;2022-10-20T13:31:53;99423.44;;;21.28;51.12
4410;BME280;2218;51.408;7.208;2022-10-20T13:34:28;99424.41;;;21.27;50.82
4410;BME280;2218;51.408;7.208;2022-10-20T13:37:13;99426.22;;;21.27;50.81
4410;BME280;2218;51.408;7.208;2022-10-20T13:39:56;99432.50;;;21.26;50.95
4410;BME280;2218;51.408;7.208;2022-10-20T13:42:40;99434.28;;;21.25;51.25
4410;BME280;2218;51.408;7.208;2022-10-20T13:45:27;99429.00;;;21.25;51.06
4410;BME280;2218;51.408;7.208;2022-10-20T13:48:17;99423.72;;;21.25;50.95
4410;BME280;2218;51.408;7.208;2022-10-20T13:50:55;99432.50;;;21.26;51.16
4410;BME280;2218;51.408;7.208;2022-10-20T13:53:28;99402.56;;;21.25;50.60
4410;BME280;2218;51.408;7.208;2022-10-20T13:56:03;99405.22;;;21.25;51.21
4410;BME280;2218;51.408;7.208;2022-10-20T13:58:30;99398.13;;;21.26;50.61
4410;BME280;2218;51.408;7.208;2022-10-20T14:01:03;99410.50;;;21.25;50.87
4410;BME280;2218;51.408;7.208;2022-10-20T14:03:39;99411.34;;;21.26;51.13
4410;BME280;2218;51.408;7.208;2022-10-20T14:06:31;99412.19;;;21.26;50.86